createdAt,value
2022-09-20T00:00:30.752Z,13.80
2022-09-20T00:02:58.578Z,13.70
2022-09-20T00:05:26.520Z,13.70
2022-09-20T00:07:55.749Z,14.10
2022-09-20T00:10:24.569Z,14.10
2022-09-20T00:12:52.414Z,13.60
2022-09-20T00:15:20.293Z,13.60
2022-09-20T00:17:48.114Z,13.20
2022-09-20T00:20:16.049Z,13.20
2022-09-20T00:22:43.885Z,13.50
2022-09-20T00:25:13.103Z,13.50
2022-09-20T00:27:40.975Z,13.80
2022-09-20T00:30:09.699Z,14.20
2022-09-20T00:32:37.519Z,14.20
2022-09-20T00:35:11.108Z,14.20
2022-09-20T00:37:39.412Z,14.20
2022-09-20T00:40:08.171Z,14.40
2022-09-20T00:42:37.448Z,14.50
2022-09-20T00:45:05.923Z,14.50
2022-09-20T00:47:35.600Z,14.20
2022-09-20T00:50:05.194Z,14.30
2022-09-20T00:52:33.035Z,14.20
2022-09-20T00:55:00.923Z,13.40
2022-09-20T00:57:28.823Z,13.60
2022-09-20T00:59:58.084Z,14.20
2022-09-20T01:02:27.074Z,14.20
2022-09-20T01:04:54.961Z,14.40
2022-09-20T01:07:23.379Z,14.40
2022-09-20T01:09:51.303Z,14.10
2022-09-20T01:12:19.714Z,13.80
2022-09-20T01:14:47.755Z,14.20
2022-09-20T01:17:16.958Z,13.70
2022-09-20T01:19:47.498Z,13.80
2022-09-20T01:22:16.803Z,14.00
2022-09-20T01:24:46.120Z,14.20
2022-09-20T01:27:15.411Z,14.20
2022-09-20T01:29:48.793Z,14.10
2022-09-20T01:32:17.999Z,13.70
2022-09-20T01:34:46.375Z,13.30
2022-09-20T01:37:16.039Z,13.70
2022-09-20T01:39:45.822Z,13.80
2022-09-20T01:42:14.067Z,13.70
2022-09-20T01:44:42.607Z,13.60
2022-09-20T01:47:13.699Z,14.00
2022-09-20T01:49:44.110Z,13.80
2022-09-20T01:52:17.178Z,13.20
2022-09-20T01:54:58.854Z,13.70
2022-09-20T01:57:45.331Z,14.00
2022-09-20T02:00:17.738Z,13.60
2022-09-20T02:03:06.696Z,13.20
2022-09-20T02:05:49.429Z,13.60
2022-09-20T02:08:35.883Z,13.60
2022-09-20T02:11:11.060Z,13.50
2022-09-20T02:13:45.947Z,13.30
2022-09-20T02:16:34.822Z,13.40
2022-09-20T02:19:15.863Z,13.40
2022-09-20T02:21:44.519Z,13.20
2022-09-20T02:24:15.892Z,13.50
2022-09-20T02:26:44.502Z,13.60
2022-09-20T02:29:16.491Z,13.30
2022-09-20T02:31:46.004Z,13.20
2022-09-20T02:34:23.487Z,13.70
2022-09-20T02:36:54.121Z,13.40
2022-09-20T02:39:22.540Z,13.30
2022-09-20T02:41:57.396Z,13.20
2022-09-20T02:44:27.651Z,13.50
2022-09-20T02:46:57.136Z,13.80
2022-09-20T02:49:28.180Z,13.70
2022-09-20T02:51:57.156Z,13.70
2022-09-20T02:54:28.391Z,14.00
2022-09-20T02:56:57.289Z,14.10
2022-09-20T02:59:26.927Z,14.10
2022-09-20T03:01:57.551Z,14.10
2022-09-20T03:04:31.552Z,14.10
2022-09-20T03:07:00.150Z,14.00
2022-09-20T03:09:29.656Z,14.00
2022-09-20T03:12:00.868Z,13.90
2022-09-20T03:14:29.464Z,14.00
2022-09-20T03:17:03.928Z,13.70
2022-09-20T03:19:36.849Z,13.70
2022-09-20T03:22:07.012Z,13.60
2022-09-20T03:24:42.998Z,13.60
2022-09-20T03:27:13.531Z,13.70
2022-09-20T03:29:44.294Z,14.00
2022-09-20T03:32:18.974Z,14.00
2022-09-20T03:34:50.356Z,13.90
2022-09-20T03:37:30.183Z,13.70
2022-09-20T03:40:15.837Z,13.70
2022-09-20T03:42:44.616Z,13.50
2022-09-20T03:45:24.034Z,13.30
2022-09-20T03:47:55.900Z,13.30
2022-09-20T03:50:33.041Z,13.50
2022-09-20T03:53:15.737Z,13.70
2022-09-20T03:55:46.734Z,13.70
2022-09-20T03:58:38.117Z,13.40
2022-09-20T04:01:09.910Z,13.70
2022-09-20T04:03:39.944Z,13.30
2022-09-20T04:06:19.002Z,13.30
2022-09-20T04:08:51.015Z,13.50
2022-09-20T04:11:19.323Z,13.40
2022-09-20T04:13:48.902Z,13.50
2022-09-20T04:16:21.735Z,13.40
2022-09-20T04:18:50.866Z,13.50
2022-09-20T04:21:23.793Z,13.40
2022-09-20T04:23:53.509Z,13.30
2022-09-20T04:26:22.224Z,13.30
2022-09-20T04:28:52.411Z,13.10
2022-09-20T04:31:28.811Z,13.20
2022-09-20T04:33:57.426Z,13.20
2022-09-20T04:36:31.087Z,13.20
2022-09-20T04:39:03.318Z,13.20
2022-09-20T04:41:35.882Z,12.90
2022-09-20T04:44:25.208Z,13.00
2022-09-20T04:47:12.015Z,12.80
2022-09-20T04:49:44.391Z,12.80
2022-09-20T04:52:27.449Z,13.00
2022-09-20T04:55:10.514Z,13.20
2022-09-20T04:57:43.980Z,13.00
2022-09-20T05:00:12.807Z,12.70
2022-09-20T05:02:53.545Z,12.90
2022-09-20T05:05:29.466Z,12.80
2022-09-20T05:08:03.690Z,13.00
2022-09-20T05:10:50.010Z,12.60
2022-09-20T05:13:22.099Z,12.60
2022-09-20T05:15:52.978Z,12.80
2022-09-20T05:18:40.519Z,12.70
2022-09-20T05:21:13.486Z,12.70
2022-09-20T05:23:48.816Z,12.70
2022-09-20T05:26:19.727Z,12.80
2022-09-20T05:28:53.401Z,12.90
2022-09-20T05:31:23.524Z,12.70
2022-09-20T05:33:52.423Z,12.80
2022-09-20T05:36:21.671Z,12.70
2022-09-20T05:38:51.706Z,12.70
2022-09-20T05:41:23.827Z,12.60
2022-09-20T05:43:53.837Z,12.60
2022-09-20T05:46:25.001Z,12.70
2022-09-20T05:48:54.451Z,12.70
2022-09-20T05:51:31.652Z,12.90
2022-09-20T05:54:06.980Z,12.90
2022-09-20T05:56:36.049Z,12.70
2022-09-20T05:59:09.633Z,12.70
2022-09-20T06:01:40.566Z,12.80
2022-09-20T06:04:10.633Z,13.00
2022-09-20T06:06:40.744Z,12.90
2022-09-20T06:09:15.606Z,13.00
2022-09-20T06:11:56.003Z,13.00
2022-09-20T06:14:28.676Z,13.20
2022-09-20T06:16:59.091Z,13.00
2022-09-20T06:19:30.214Z,13.00
2022-09-20T06:22:01.913Z,13.30
2022-09-20T06:24:35.164Z,13.30
2022-09-20T06:27:04.138Z,13.00
2022-09-20T06:29:32.360Z,13.00
2022-09-20T06:32:00.219Z,13.10
2022-09-20T06:34:28.193Z,13.20
2022-09-20T06:37:15.963Z,13.50
2022-09-20T06:40:03.208Z,14.30
2022-09-20T06:42:31.100Z,15.90
2022-09-20T06:44:58.969Z,17.60
2022-09-20T06:47:27.314Z,16.10
2022-09-20T06:49:55.671Z,16.20
2022-09-20T06:52:24.007Z,17.60
2022-09-20T06:54:53.989Z,18.00
2022-09-20T06:57:23.848Z,17.90
2022-09-20T06:59:51.749Z,18.10
2022-09-20T07:02:19.629Z,17.40
2022-09-20T07:04:47.636Z,17.00
2022-09-20T07:07:16.692Z,17.30
2022-09-20T07:09:44.592Z,16.90
2022-09-20T07:12:13.887Z,17.50
2022-09-20T07:14:41.782Z,17.20
2022-09-20T07:17:09.625Z,17.30
2022-09-20T07:19:37.507Z,16.70
2022-09-20T07:22:05.466Z,16.80
2022-09-20T07:24:33.322Z,17.10
2022-09-20T07:27:01.457Z,17.10
2022-09-20T07:29:31.540Z,17.30
2022-09-20T07:31:59.537Z,17.70
2022-09-20T07:34:27.748Z,18.10
2022-09-20T07:36:57.321Z,18.30
2022-09-20T07:39:25.281Z,18.00
2022-09-20T07:41:53.195Z,18.30
2022-09-20T07:44:24.964Z,18.70
2022-09-20T07:46:54.404Z,18.50
2022-09-20T07:49:22.630Z,18.50
2022-09-20T07:51:50.650Z,18.30
2022-09-20T07:54:18.563Z,17.80
2022-09-20T07:56:46.553Z,18.40
2022-09-20T07:59:14.532Z,18.00
2022-09-20T08:01:42.425Z,17.40
2022-09-20T08:04:11.958Z,17.70
2022-09-20T08:06:39.883Z,16.90
2022-09-20T08:09:10.909Z,17.20
2022-09-20T08:11:39.664Z,17.40
2022-09-20T08:14:09.044Z,16.80
2022-09-20T08:16:38.886Z,16.70
2022-09-20T08:19:06.936Z,17.10
2022-09-20T08:21:36.349Z,17.60
2022-09-20T08:24:04.767Z,18.20
2022-09-20T08:26:32.674Z,16.90
2022-09-20T08:29:01.300Z,17.00
2022-09-20T08:31:31.548Z,17.00
2022-09-20T08:34:03.066Z,16.10
2022-09-20T08:36:35.912Z,17.30
2022-09-20T08:41:55.707Z,18.10
2022-09-20T08:44:26.101Z,16.40
2022-09-20T08:46:56.205Z,17.30
2022-09-20T08:49:26.890Z,17.00
2022-09-20T08:51:54.857Z,17.20
2022-09-20T08:54:24.381Z,16.90
2022-09-20T08:56:52.327Z,16.70
2022-09-20T08:59:20.594Z,16.60
2022-09-20T09:01:48.826Z,16.40
2022-09-20T09:04:17.034Z,17.50
2022-09-20T09:06:45.018Z,18.50
2022-09-20T09:09:15.400Z,18.90
2022-09-20T09:11:46.075Z,18.80
2022-09-20T09:14:28.658Z,18.30
2022-09-20T09:16:56.635Z,18.50
2022-09-20T09:19:33.230Z,18.90
2022-09-20T09:22:02.194Z,17.70
2022-09-20T09:24:31.506Z,18.20
2022-09-20T09:27:14.909Z,18.70
2022-09-20T09:29:50.592Z,18.00
2022-09-20T09:32:22.361Z,17.40
2022-09-20T09:34:50.368Z,17.20
2022-09-20T09:37:28.641Z,17.90
2022-09-20T09:40:13.027Z,18.70
2022-09-20T09:42:50.274Z,18.10
2022-09-20T09:45:31.826Z,17.80
2022-09-20T09:48:01.006Z,17.70
2022-09-20T09:50:30.526Z,17.70
2022-09-20T09:53:02.930Z,17.30
2022-09-20T09:55:35.113Z,17.20
2022-09-20T09:58:05.138Z,17.00
2022-09-20T10:00:35.806Z,17.60
2022-09-20T10:03:07.606Z,16.80
2022-09-20T10:05:36.864Z,17.20
2022-09-20T10:08:11.016Z,17.40
2022-09-20T10:10:41.591Z,17.80
2022-09-20T10:13:19.116Z,17.80
2022-09-20T10:15:48.544Z,17.80
2022-09-20T10:18:24.961Z,17.50
2022-09-20T10:21:01.614Z,17.30
2022-09-20T10:24:01.205Z,17.80
2022-09-20T10:26:28.019Z,18.20
2022-09-20T10:28:59.359Z,18.40
2022-09-20T10:31:32.369Z,18.90
2022-09-20T10:34:07.572Z,18.70
2022-09-20T10:36:36.095Z,18.70
2022-09-20T10:39:04.769Z,18.00
2022-09-20T10:41:56.651Z,18.50
2022-09-20T10:44:33.038Z,18.30
2022-09-20T10:47:01.979Z,18.10
2022-09-20T10:49:33.094Z,18.70
2022-09-20T10:52:04.447Z,18.00
2022-09-20T10:54:35.568Z,17.70
2022-09-20T10:57:07.166Z,18.20
2022-09-20T10:59:38.731Z,18.50
2022-09-20T11:02:22.432Z,18.80
2022-09-20T11:04:56.150Z,18.20
2022-09-20T11:07:25.455Z,18.00
2022-09-20T11:09:53.819Z,17.30
2022-09-20T11:12:23.335Z,18.10
2022-09-20T11:14:54.520Z,18.00
2022-09-20T11:17:23.779Z,18.30
2022-09-20T11:19:54.424Z,17.90
2022-09-20T11:22:22.907Z,18.40
2022-09-20T11:24:51.801Z,17.80
2022-09-20T11:27:20.020Z,18.70
2022-09-20T11:29:50.143Z,19.60
2022-09-20T11:32:21.300Z,20.20
2022-09-20T11:34:51.323Z,20.50
2022-09-20T11:37:21.060Z,20.30
2022-09-20T11:39:50.230Z,20.40
2022-09-20T11:42:19.623Z,19.80
2022-09-20T11:44:47.531Z,20.90
2022-09-20T11:47:31.234Z,20.00
2022-09-20T11:50:09.142Z,19.20
2022-09-20T11:52:52.952Z,19.70
2022-09-20T11:55:31.697Z,20.20
2022-09-20T11:58:03.337Z,19.50
2022-09-20T12:00:31.658Z,19.40
2022-09-20T12:02:59.648Z,18.90
2022-09-20T12:05:32.267Z,18.80
2022-09-20T12:08:00.376Z,18.70
2022-09-20T12:10:28.644Z,18.00
2022-09-20T12:12:56.966Z,17.80
2022-09-20T12:15:25.622Z,17.70
2022-09-20T12:18:08.935Z,18.00
2022-09-20T12:20:55.859Z,18.20
2022-09-20T12:23:42.763Z,17.20
2022-09-20T12:26:13.430Z,17.50
2022-09-20T12:28:41.591Z,17.50
2022-09-20T12:31:29.739Z,17.70
2022-09-20T12:33:58.114Z,18.10
2022-09-20T12:36:26.120Z,18.30
2022-09-20T12:38:56.551Z,18.20
2022-09-20T12:41:28.701Z,18.10
2022-09-20T12:44:01.063Z,18.30
2022-09-20T12:46:39.552Z,18.60
2022-09-20T12:49:36.724Z,18.40
2022-09-20T12:52:18.599Z,18.40
2022-09-20T12:54:53.242Z,18.30
2022-09-20T12:57:28.391Z,18.50
2022-09-20T12:59:56.590Z,18.60
2022-09-20T13:02:44.876Z,18.40
2022-09-20T13:05:35.081Z,19.20
2022-09-20T13:08:03.857Z,19.70
2022-09-20T13:10:32.410Z,19.70
2022-09-20T13:13:06.308Z,19.40
2022-09-20T13:15:35.184Z,18.90
2022-09-20T13:18:03.049Z,19.30
2022-09-20T13:20:31.572Z,19.30
2022-09-20T13:23:00.402Z,19.40
2022-09-20T13:25:28.610Z,19.40
2022-09-20T13:27:58.645Z,19.80
2022-09-20T13:30:29.911Z,19.40
2022-09-20T13:32:58.411Z,19.20
2022-09-20T13:35:28.029Z,18.90
2022-09-20T13:37:56.156Z,19.30
2022-09-20T13:40:24.702Z,19.60
2022-09-20T13:43:12.977Z,18.90
2022-09-20T13:45:43.999Z,18.80
2022-09-20T13:48:11.971Z,19.30
2022-09-20T13:50:44.901Z,19.40
2022-09-20T13:53:33.332Z,18.80
2022-09-20T13:56:03.563Z,19.60
2022-09-20T13:58:32.891Z,19.60
2022-09-20T14:01:03.258Z,19.30
2022-09-20T14:03:31.438Z,18.90
2022-09-20T14:05:59.850Z,19.10
2022-09-20T14:08:27.896Z,19.30
2022-09-20T14:11:04.443Z,19.50
2022-09-20T14:13:32.355Z,18.90
2022-09-20T14:16:00.241Z,18.90
2022-09-20T14:18:29.860Z,18.70
2022-09-20T14:20:58.228Z,19.10
2022-09-20T14:23:26.493Z,19.20
2022-09-20T14:26:06.834Z,18.00
2022-09-20T14:28:34.738Z,18.10
2022-09-20T14:31:06.547Z,18.10
2022-09-20T14:33:36.507Z,18.20
2022-09-20T14:36:04.625Z,18.20
2022-09-20T14:38:33.007Z,17.90
2022-09-20T14:41:00.887Z,18.20
2022-09-20T14:43:31.355Z,17.80
2022-09-20T14:46:00.751Z,17.60
2022-09-20T14:48:31.998Z,17.70
2022-09-20T14:51:11.762Z,17.90
2022-09-20T14:53:39.674Z,17.60
2022-09-20T14:56:11.552Z,17.80
2022-09-20T14:58:58.614Z,17.70
2022-09-20T15:01:27.220Z,18.00
2022-09-20T15:03:56.220Z,18.30
2022-09-20T15:06:25.814Z,18.80
2022-09-20T15:08:53.695Z,18.30
2022-09-20T15:11:21.575Z,18.40
2022-09-20T15:13:49.451Z,18.70
2022-09-20T15:16:18.386Z,18.30
2022-09-20T15:18:46.284Z,18.30
2022-09-20T15:21:14.197Z,18.00
2022-09-20T15:23:43.875Z,18.30
2022-09-20T15:26:11.786Z,17.90
2022-09-20T15:28:40.061Z,17.80
2022-09-20T15:31:07.962Z,17.90
2022-09-20T15:33:35.810Z,17.40
2022-09-20T15:36:03.922Z,17.70
2022-09-20T15:38:31.767Z,17.20
2022-09-20T15:41:03.502Z,17.80
2022-09-20T15:43:31.513Z,18.10
2022-09-20T15:46:00.802Z,17.50
2022-09-20T15:48:30.528Z,17.40
2022-09-20T15:51:03.019Z,17.50
2022-09-20T15:53:33.570Z,17.70
2022-09-20T15:56:03.624Z,17.50
2022-09-20T15:58:35.596Z,17.90
2022-09-20T16:01:06.043Z,18.10
2022-09-20T16:03:34.702Z,18.00
2022-09-20T16:06:04.618Z,17.70
2022-09-20T16:08:33.271Z,17.70
2022-09-20T16:11:02.557Z,17.60
2022-09-20T16:13:30.407Z,17.80
2022-09-20T16:15:58.356Z,17.80
2022-09-20T16:18:43.665Z,18.20
2022-09-20T16:21:12.632Z,18.10
2022-09-20T16:23:40.678Z,17.90
2022-09-20T16:26:13.333Z,17.80
2022-09-20T16:28:45.173Z,17.50
2022-09-20T16:31:32.737Z,17.50
2022-09-20T16:34:00.929Z,17.20
2022-09-20T16:36:28.817Z,17.30
2022-09-20T16:38:57.286Z,17.90
2022-09-20T16:41:27.211Z,17.70
2022-09-20T16:43:55.076Z,17.30
2022-09-20T16:46:27.309Z,17.10
2022-09-20T16:48:55.322Z,17.50
2022-09-20T16:51:25.065Z,17.80
2022-09-20T16:53:54.013Z,17.90
2022-09-20T16:56:22.825Z,18.10
2022-09-20T16:58:52.173Z,18.20
2022-09-20T17:01:20.063Z,17.70
2022-09-20T17:03:48.250Z,18.00
2022-09-20T17:06:16.496Z,18.00
2022-09-20T17:08:46.111Z,18.00
2022-09-20T17:11:15.036Z,18.00
2022-09-20T17:13:43.153Z,18.00
2022-09-20T17:16:13.121Z,17.70
2022-09-20T17:18:41.991Z,17.80
2022-09-20T17:21:10.392Z,18.10
2022-09-20T17:23:38.417Z,18.10
2022-09-20T17:26:06.995Z,18.30
2022-09-20T17:28:35.509Z,17.90
2022-09-20T17:31:03.432Z,17.80
2022-09-20T17:33:33.642Z,17.80
2022-09-20T17:36:02.485Z,17.70
2022-09-20T17:38:31.087Z,17.70
2022-09-20T17:41:02.465Z,17.60
2022-09-20T17:43:31.323Z,17.40
2022-09-20T17:46:06.689Z,17.20
2022-09-20T17:48:36.585Z,17.20
2022-09-20T17:51:06.444Z,17.10
2022-09-20T17:53:36.098Z,17.20
2022-09-20T17:56:05.198Z,17.20
2022-09-20T17:58:34.754Z,17.10
2022-09-20T18:01:10.993Z,17.30
2022-09-20T18:03:42.627Z,17.10
2022-09-20T18:06:14.248Z,17.00
2022-09-20T18:08:42.193Z,16.50
2022-09-20T18:11:10.250Z,16.30
2022-09-20T18:13:38.859Z,16.20
2022-09-20T18:16:09.045Z,16.30
2022-09-20T18:18:36.918Z,16.50
2022-09-20T18:21:11.815Z,16.30
2022-09-20T18:23:39.664Z,16.20
2022-09-20T18:26:23.628Z,15.90
2022-09-20T18:28:55.032Z,15.70
2022-09-20T18:31:23.010Z,15.50
2022-09-20T18:33:53.143Z,15.80
2022-09-20T18:36:25.604Z,15.80
2022-09-20T18:38:57.606Z,15.90
2022-09-20T18:41:26.047Z,15.90
2022-09-20T18:43:54.458Z,15.70
2022-09-20T18:46:25.030Z,15.70
2022-09-20T18:48:53.113Z,15.70
2022-09-20T18:51:24.296Z,15.70
2022-09-20T18:53:52.250Z,15.50
2022-09-20T18:56:24.048Z,15.20
2022-09-20T18:58:58.641Z,14.80
2022-09-20T19:01:45.411Z,15.00
2022-09-20T19:04:19.084Z,14.90
2022-09-20T19:06:50.107Z,15.20
2022-09-20T19:09:18.943Z,14.90
2022-09-20T19:11:48.307Z,14.90
2022-09-20T19:14:17.573Z,15.00
2022-09-20T19:16:45.409Z,14.80
2022-09-20T19:19:20.325Z,15.00
2022-09-20T19:21:52.335Z,14.80
2022-09-20T19:24:23.527Z,14.80
2022-09-20T19:26:51.568Z,14.90
2022-09-20T19:29:20.105Z,14.20
2022-09-20T19:31:48.247Z,14.10
2022-09-20T19:34:17.730Z,14.30
2022-09-20T19:36:48.572Z,14.30
2022-09-20T19:39:19.757Z,14.60
2022-09-20T19:41:50.031Z,14.30
2022-09-20T19:44:22.033Z,14.40
2022-09-20T19:47:10.780Z,14.40
2022-09-20T19:49:41.798Z,14.30
2022-09-20T19:52:09.947Z,14.20
2022-09-20T19:54:43.256Z,14.60
2022-09-20T19:57:15.882Z,14.70
2022-09-20T19:59:44.161Z,14.50
2022-09-20T20:02:12.365Z,14.60
2022-09-20T20:04:41.273Z,14.50
2022-09-20T20:07:09.711Z,14.30
2022-09-20T20:09:40.122Z,14.20
2022-09-20T20:12:14.862Z,14.10
2022-09-20T20:14:46.241Z,13.90
2022-09-20T20:17:20.415Z,13.80
2022-09-20T20:19:50.765Z,13.80
2022-09-20T20:22:22.216Z,13.90
2022-09-20T20:24:52.078Z,13.90
2022-09-20T20:27:19.962Z,13.80
2022-09-20T20:29:48.072Z,13.70
2022-09-20T20:32:16.245Z,13.60
2022-09-20T20:34:44.386Z,13.80
2022-09-20T20:37:12.496Z,13.70
2022-09-20T20:39:40.344Z,13.60
2022-09-20T20:42:12.966Z,13.70
2022-09-20T20:44:41.706Z,13.60
2022-09-20T20:47:09.538Z,13.50
2022-09-20T20:49:37.417Z,13.20
2022-09-20T20:52:05.831Z,13.10
2022-09-20T20:54:33.696Z,13.10
2022-09-20T20:57:03.340Z,13.20
2022-09-20T20:59:32.590Z,13.20
2022-09-20T21:02:03.415Z,13.10
2022-09-20T21:04:34.111Z,13.00
2022-09-20T21:07:01.956Z,13.10
2022-09-20T21:09:29.824Z,12.90
2022-09-20T21:11:57.661Z,12.70
2022-09-20T21:14:25.512Z,12.80
2022-09-20T21:16:54.715Z,12.90
2022-09-20T21:19:23.050Z,13.00
2022-09-20T21:21:50.888Z,12.90
2022-09-20T21:24:18.739Z,12.90
2022-09-20T21:26:47.581Z,12.80
2022-09-20T21:29:16.250Z,12.80
2022-09-20T21:31:44.415Z,12.70
2022-09-20T21:34:13.893Z,12.40
2022-09-20T21:36:42.442Z,12.50
2022-09-20T21:39:10.287Z,12.60
2022-09-20T21:41:38.633Z,12.60
2022-09-20T21:44:06.718Z,12.50
2022-09-20T21:46:35.060Z,12.70
2022-09-20T21:49:04.059Z,12.60
2022-09-20T21:51:33.409Z,12.80
2022-09-20T21:54:01.751Z,12.50
2022-09-20T21:56:31.392Z,12.50
2022-09-20T21:58:59.455Z,12.40
2022-09-20T22:01:28.009Z,12.50
2022-09-20T22:03:59.052Z,12.30
2022-09-20T22:06:27.330Z,12.00
2022-09-20T22:08:58.483Z,12.10
2022-09-20T22:11:27.097Z,12.30
2022-09-20T22:13:55.376Z,12.00
2022-09-20T22:16:23.652Z,12.20
2022-09-20T22:18:51.555Z,12.70
2022-09-20T22:21:20.044Z,12.80
2022-09-20T22:23:49.554Z,12.20
2022-09-20T22:26:19.035Z,11.70
2022-09-20T22:28:49.850Z,12.20
2022-09-20T22:31:18.627Z,12.20
2022-09-20T22:33:46.810Z,12.40
2022-09-20T22:36:15.351Z,12.30
2022-09-20T22:38:43.232Z,12.30
2022-09-20T22:41:11.197Z,11.90
2022-09-20T22:43:40.420Z,11.60
2022-09-20T22:46:08.673Z,12.30
2022-09-20T22:48:36.569Z,12.30
2022-09-20T22:51:05.320Z,12.00
2022-09-20T22:53:33.259Z,12.00
2022-09-20T22:56:07.369Z,12.00
2022-09-20T22:58:35.699Z,11.70
2022-09-20T23:01:09.984Z,11.30
2022-09-20T23:03:37.907Z,11.50
2022-09-20T23:06:06.025Z,11.50
2022-09-20T23:08:33.902Z,12.00
2022-09-20T23:11:02.487Z,12.20
2022-09-20T23:13:30.334Z,12.10
2022-09-20T23:15:58.212Z,12.00
2022-09-20T23:18:27.555Z,12.00
2022-09-20T23:20:59.135Z,11.80
2022-09-20T23:23:26.976Z,11.80
2022-09-20T23:25:55.676Z,12.10
2022-09-20T23:28:27.086Z,12.20
2022-09-20T23:30:55.220Z,12.30
2022-09-20T23:33:23.262Z,12.10
2022-09-20T23:35:52.478Z,11.90
2022-09-20T23:38:20.310Z,12.30
2022-09-20T23:40:48.166Z,11.80
2022-09-20T23:43:16.023Z,11.60
2022-09-20T23:45:43.964Z,11.90
2022-09-20T23:48:11.856Z,12.20
2022-09-20T23:50:39.717Z,12.20
2022-09-20T23:53:08.941Z,11.70
2022-09-20T23:55:36.819Z,11.90
2022-09-20T23:58:04.722Z,12.00
